sensor_id;sensor_type;location;lat;lon;timestamp;pressure;altitude;pressure_sealevel;temperature;humidity
11395;BME280;5753;54.402;10.220;2023-02-15T00:01:42;103102.59;;;10.89;50.44
11395;BME280;5753;54.402;10.220;2023-02-15T00:04:09;103104.03;;;10.84;49.74
11395;BME280;5753;54.402;10.220;2023-02-15T00:06:36;103096.19;;;10.83;49.40
11395;BME280;5753;54.402;10.220;2023-02-15T00:09:03;103098.84;;;10.84;49.52
11395;BME280;5753;54.402;10.220;2023-02-15T00:11:29;103093.16;;;10.90;52.74
11395;BME280;5753;54.402;10.220;2023-02-15T00:14:20;103091.28;;;11.21;52.12
11395;BME280;5753;54.402;10.220;2023-02-15T00:16:48;103076.53;;;11.19;52.46
11395;BME280;5753;54.402;10.220;2023-02-15T00:19:16;103071.00;;;11.29;51.88
11395;BME280;5753;54.402;10.220;2023-02-15T00:21:43;103072.84;;;11.31;52.17
11395;BME280;5753;54.402;10.220;2023-02-15T00:24:12;103074.03;;;11.20;53.38
11395;BME280;5753;54.402;10.220;2023-02-15T00:26:39;103080.16;;;11.58;52.45
11395;BME280;5753;54.402;10.220;2023-02-15T00:29:07;103064.88;;;11.62;51.13
11395;BME280;5753;54.402;10.220;2023-02-15T00:31:34;103062.81;;;11.55;50.78
11395;BME280;5753;54.402;10.220;2023-02-15T00:34:23;103063.03;;;11.95;51.20
11395;BME280;5753;54.402;10.220;2023-02-15T00:36:50;103053.22;;;11.53;52.46
11395;BME280;5753;54.402;10.220;2023-02-15T00:39:18;103059.09;;;11.68;51.58
11395;BME280;5753;54.402;10.220;2023-02-15T00:41:45;103059.88;;;11.48;51.31
11395;BME280;5753;54.402;10.220;2023-02-15T00:44:12;103059.03;;;11.66;51.96
11395;BME280;5753;54.402;10.220;2023-02-15T00:46:38;103062.84;;;11.38;53.44
11395;BME280;5753;54.402;10.220;2023-02-15T00:49:05;103049.66;;;11.68;51.12
11395;BME280;5753;54.402;10.220;2023-02-15T00:51:32;103052.03;;;11.82;51.11
11395;BME280;5753;54.402;10.220;2023-02-15T00:53:58;103050.44;;;11.84;50.85
11395;BME280;5753;54.402;10.220;2023-02-15T00:56:24;103046.28;;;11.87;51.01
11395;BME280;5753;54.402;10.220;2023-02-15T00:58:51;103042.44;;;11.79;51.31
11395;BME280;5753;54.402;10.220;2023-02-15T01:01:19;103044.38;;;11.30;53.74
11395;BME280;5753;54.402;10.220;2023-02-15T01:03:45;103046.44;;;11.55;53.21
11395;BME280;5753;54.402;10.220;2023-02-15T01:06:13;103039.78;;;11.78;51.46
11395;BME280;5753;54.402;10.220;2023-02-15T01:08:40;103038.13;;;12.17;51.08
11395;BME280;5753;54.402;10.220;2023-02-15T01:11:12;103043.25;;;11.78;52.62
11395;BME280;5753;54.402;10.220;2023-02-15T01:13:39;103038.59;;;11.71;52.16
11395;BME280;5753;54.402;10.220;2023-02-15T01:16:06;103038.31;;;11.65;53.09
11395;BME280;5753;54.402;10.220;2023-02-15T01:18:33;103037.69;;;11.71;52.65
11395;BME280;5753;54.402;10.220;2023-02-15T01:21:00;103039.03;;;11.80;51.57
11395;BME280;5753;54.402;10.220;2023-02-15T01:23:26;103035.63;;;11.81;51.57
11395;BME280;5753;54.402;10.220;2023-02-15T01:25:52;103037.50;;;10.95;55.83
11395;BME280;5753;54.402;10.220;2023-02-15T01:28:18;103027.78;;;11.97;51.90
11395;BME280;5753;54.402;10.220;2023-02-15T01:30:45;103019.84;;;11.93;52.49
11395;BME280;5753;54.402;10.220;2023-02-15T01:33:11;103008.03;;;11.80;52.81
11395;BME280;5753;54.402;10.220;2023-02-15T01:35:44;103014.00;;;11.79;53.40
11395;BME280;5753;54.402;10.220;2023-02-15T01:38:12;103023.44;;;11.96;52.64
11395;BME280;5753;54.402;10.220;2023-02-15T01:40:38;103009.72;;;11.80;51.69
11395;BME280;5753;54.402;10.220;2023-02-15T01:43:10;103022.28;;;11.72;51.53
11395;BME280;5753;54.402;10.220;2023-02-15T01:45:37;103017.78;;;11.68;50.98
11395;BME280;5753;54.402;10.220;2023-02-15T01:48:18;103026.19;;;11.64;50.48
11395;BME280;5753;54.402;10.220;2023-02-15T01:50:53;103023.16;;;11.35;51.71
11395;BME280;5753;54.402;10.220;2023-02-15T01:53:33;103013.25;;;11.45;50.75
11395;BME280;5753;54.402;10.220;2023-02-15T01:56:09;103000.63;;;11.51;51.23
11395;BME280;5753;54.402;10.220;2023-02-15T01:58:39;103002.94;;;11.45;51.54
11395;BME280;5753;54.402;10.220;2023-02-15T02:01:08;103001.00;;;11.41;51.62
11395;BME280;5753;54.402;10.220;2023-02-15T02:04:02;102991.75;;;11.63;50.88
11395;BME280;5753;54.402;10.220;2023-02-15T02:06:31;102982.63;;;11.52;51.44
11395;BME280;5753;54.402;10.220;2023-02-15T02:08:58;102989.50;;;11.16;52.95
11395;BME280;5753;54.402;10.220;2023-02-15T02:11:26;102978.47;;;11.56;51.57
11395;BME280;5753;54.402;10.220;2023-02-15T02:13:54;102986.84;;;11.32;52.42
11395;BME280;5753;54.402;10.220;2023-02-15T02:31:18;102951.41;;;11.48;52.38
11395;BME280;5753;54.402;10.220;2023-02-15T02:34:00;102958.56;;;11.73;51.26
11395;BME280;5753;54.402;10.220;2023-02-15T02:36:40;102949.44;;;11.79;50.87
11395;BME280;5753;54.402;10.220;2023-02-15T02:44:44;102936.50;;;11.05;52.80
11395;BME280;5753;54.402;10.220;2023-02-15T02:47:46;102929.53;;;11.40;51.87
11395;BME280;5753;54.402;10.220;2023-02-15T02:50:13;102932.38;;;11.46;51.58
11395;BME280;5753;54.402;10.220;2023-02-15T02:55:18;102920.22;;;11.62;50.97
11395;BME280;5753;54.402;10.220;2023-02-15T02:58:08;102912.72;;;11.86;50.72
11395;BME280;5753;54.402;10.220;2023-02-15T03:00:41;102920.22;;;11.62;50.64
11395;BME280;5753;54.402;10.220;2023-02-15T03:03:14;102914.44;;;11.68;50.26
11395;BME280;5753;54.402;10.220;2023-02-15T03:05:47;102900.72;;;11.69;50.50
11395;BME280;5753;54.402;10.220;2023-02-15T03:08:16;102907.91;;;11.76;50.50
11395;BME280;5753;54.402;10.220;2023-02-15T03:10:48;102916.38;;;10.62;54.02
11395;BME280;5753;54.402;10.220;2023-02-15T03:13:17;102910.94;;;10.40;55.30
11395;BME280;5753;54.402;10.220;2023-02-15T03:15:44;102913.38;;;10.37;55.40
11395;BME280;5753;54.402;10.220;2023-02-15T03:18:34;102906.09;;;11.17;52.68
11395;BME280;5753;54.402;10.220;2023-02-15T03:21:03;102902.94;;;11.05;53.36
11395;BME280;5753;54.402;10.220;2023-02-15T03:23:31;102909.31;;;10.94;53.26
11395;BME280;5753;54.402;10.220;2023-02-15T03:26:05;102899.69;;;10.38;54.79
11395;BME280;5753;54.402;10.220;2023-02-15T03:28:43;102892.88;;;11.29;51.97
11395;BME280;5753;54.402;10.220;2023-02-15T03:31:13;102895.97;;;10.67;53.11
11395;BME280;5753;54.402;10.220;2023-02-15T03:33:54;102892.56;;;10.50;53.63
11395;BME280;5753;54.402;10.220;2023-02-15T03:37:13;102888.81;;;10.79;53.27
11395;BME280;5753;54.402;10.220;2023-02-15T03:41:58;102892.97;;;10.24;54.42
11395;BME280;5753;54.402;10.220;2023-02-15T03:44:30;102886.03;;;10.57;53.56
11395;BME280;5753;54.402;10.220;2023-02-15T03:47:11;102883.47;;;10.23;54.08
11395;BME280;5753;54.402;10.220;2023-02-15T03:49:57;102884.63;;;11.36;51.35
11395;BME280;5753;54.402;10.220;2023-02-15T03:52:29;102880.41;;;10.65;52.71
11395;BME280;5753;54.402;10.220;2023-02-15T03:54:57;102879.97;;;10.92;52.31
11395;BME280;5753;54.402;10.220;2023-02-15T03:57:27;102874.16;;;10.96;51.87
11395;BME280;5753;54.402;10.220;2023-02-15T04:00:19;102870.81;;;11.35;50.88
11395;BME280;5753;54.402;10.220;2023-02-15T04:03:32;102873.50;;;10.64;52.93
11395;BME280;5753;54.402;10.220;2023-02-15T04:06:01;102865.75;;;11.19;51.18
11395;BME280;5753;54.402;10.220;2023-02-15T04:08:29;102870.69;;;10.78;51.87
11395;BME280;5753;54.402;10.220;2023-02-15T04:11:14;102868.19;;;10.97;51.43
11395;BME280;5753;54.402;10.220;2023-02-15T04:13:40;102863.00;;;10.79;51.70
11395;BME280;5753;54.402;10.220;2023-02-15T04:16:06;102875.34;;;9.99;53.18
11395;BME280;5753;54.402;10.220;2023-02-15T04:18:38;102875.44;;;10.00;54.38
11395;BME280;5753;54.402;10.220;2023-02-15T04:21:25;102873.63;;;10.50;52.34
11395;BME280;5753;54.402;10.220;2023-02-15T04:24:10;102866.81;;;10.34;52.48
11395;BME280;5753;54.402;10.220;2023-02-15T04:26:56;102871.91;;;9.66;54.28
11395;BME280;5753;54.402;10.220;2023-02-15T04:29:24;102864.09;;;10.31;53.29
11395;BME280;5753;54.402;10.220;2023-02-15T04:31:52;102855.19;;;10.78;51.50
11395;BME280;5753;54.402;10.220;2023-02-15T04:34:18;102862.91;;;9.74;54.12
11395;BME280;5753;54.402;10.220;2023-02-15T04:36:45;102860.63;;;9.80;54.16
11395;BME280;5753;54.402;10.220;2023-02-15T04:39:14;102855.09;;;9.72;54.37
11395;BME280;5753;54.402;10.220;2023-02-15T04:41:40;102851.91;;;9.60;54.50
11395;BME280;5753;54.402;10.220;2023-02-15T04:44:07;102853.03;;;9.49;55.13
11395;BME280;5753;54.402;10.220;2023-02-15T04:46:33;102859.19;;;9.69;54.81
11395;BME280;5753;54.402;10.220;2023-02-15T04:49:00;102858.25;;;9.51;54.70
11395;BME280;5753;54.402;10.220;2023-02-15T04:51:26;102849.81;;;10.37;52.92
11395;BME280;5753;54.402;10.220;2023-02-15T04:53:52;102848.59;;;10.47;52.70
11395;BME280;5753;54.402;10.220;2023-02-15T04:56:19;102837.00;;;10.75;51.87
11395;BME280;5753;54.402;10.220;2023-02-15T04:58:45;102833.25;;;10.32;52.95
11395;BME280;5753;54.402;10.220;2023-02-15T05:01:12;102833.94;;;10.12;53.39
11395;BME280;5753;54.402;10.220;2023-02-15T05:03:38;102833.47;;;10.72;51.61
11395;BME280;5753;54.402;10.220;2023-02-15T05:06:05;102833.06;;;9.61;54.42
11395;BME280;5753;54.402;10.220;2023-02-15T05:08:31;102832.81;;;9.40;55.51
11395;BME280;5753;54.402;10.220;2023-02-15T05:10:58;102827.91;;;9.45;55.80
11395;BME280;5753;54.402;10.220;2023-02-15T05:13:24;102826.72;;;10.05;53.56
11395;BME280;5753;54.402;10.220;2023-02-15T05:15:52;102826.31;;;9.47;55.45
11395;BME280;5753;54.402;10.220;2023-02-15T05:18:20;102834.91;;;9.64;54.40
11395;BME280;5753;54.402;10.220;2023-02-15T05:20:47;102822.19;;;10.35;52.96
11395;BME280;5753;54.402;10.220;2023-02-15T05:23:13;102813.47;;;10.86;51.66
11395;BME280;5753;54.402;10.220;2023-02-15T05:25:40;102817.09;;;10.19;53.05
11395;BME280;5753;54.402;10.220;2023-02-15T05:28:26;102825.69;;;10.01;53.53
11395;BME280;5753;54.402;10.220;2023-02-15T05:31:14;102827.19;;;10.85;51.90
11395;BME280;5753;54.402;10.220;2023-02-15T05:33:40;102838.63;;;10.37;53.16
11395;BME280;5753;54.402;10.220;2023-02-15T05:36:07;102824.91;;;10.73;51.71
11395;BME280;5753;54.402;10.220;2023-02-15T05:38:34;102837.22;;;10.97;51.76
11395;BME280;5753;54.402;10.220;2023-02-15T05:41:03;102841.28;;;9.54;54.49
11395;BME280;5753;54.402;10.220;2023-02-15T05:43:30;102838.84;;;10.24;53.73
11395;BME280;5753;54.402;10.220;2023-02-15T05:45:57;102839.56;;;10.21;53.56
11395;BME280;5753;54.402;10.220;2023-02-15T05:48:25;102841.00;;;10.16;53.65
11395;BME280;5753;54.402;10.220;2023-02-15T05:51:09;102834.97;;;10.50;53.31
11395;BME280;5753;54.402;10.220;2023-02-15T05:53:38;102839.00;;;9.44;56.28
11395;BME280;5753;54.402;10.220;2023-02-15T05:56:06;102838.13;;;9.76;55.50
11395;BME280;5753;54.402;10.220;2023-02-15T05:58:36;102840.94;;;9.64;55.87
11395;BME280;5753;54.402;10.220;2023-02-15T06:01:14;102846.88;;;8.83;58.47
11395;BME280;5753;54.402;10.220;2023-02-15T06:03:41;102838.94;;;10.09;55.92
11395;BME280;5753;54.402;10.220;2023-02-15T06:06:07;102830.97;;;10.04;55.50
11395;BME280;5753;54.402;10.220;2023-02-15T06:08:35;102833.78;;;9.26;57.62
11395;BME280;5753;54.402;10.220;2023-02-15T06:11:01;102839.09;;;9.45;56.91
11395;BME280;5753;54.402;10.220;2023-02-15T06:13:27;102836.06;;;9.87;55.81
11395;BME280;5753;54.402;10.220;2023-02-15T06:15:54;102831.44;;;11.02;52.91
11395;BME280;5753;54.402;10.220;2023-02-15T06:18:20;102822.19;;;10.88;53.38
11395;BME280;5753;54.402;10.220;2023-02-15T06:20:47;102832.31;;;9.80;56.16
11395;BME280;5753;54.402;10.220;2023-02-15T06:23:15;102827.97;;;8.67;57.99
11395;BME280;5753;54.402;10.220;2023-02-15T06:25:42;102820.59;;;9.04;57.97
11395;BME280;5753;54.402;10.220;2023-02-15T06:28:08;102821.84;;;9.93;55.66
11395;BME280;5753;54.402;10.220;2023-02-15T06:30:34;102818.81;;;10.36;54.54
11395;BME280;5753;54.402;10.220;2023-02-15T06:33:00;102813.88;;;10.23;55.18
11395;BME280;5753;54.402;10.220;2023-02-15T06:35:27;102816.19;;;8.87;58.53
11395;BME280;5753;54.402;10.220;2023-02-15T06:37:53;102813.94;;;8.76;58.27
11395;BME280;5753;54.402;10.220;2023-02-15T06:40:19;102818.03;;;9.20;58.52
11395;BME280;5753;54.402;10.220;2023-02-15T06:42:45;102811.75;;;10.67;54.24
11395;BME280;5753;54.402;10.220;2023-02-15T06:45:12;102812.59;;;10.86;53.46
11395;BME280;5753;54.402;10.220;2023-02-15T06:47:38;102812.31;;;10.80;53.10
11395;BME280;5753;54.402;10.220;2023-02-15T06:50:06;102806.91;;;10.56;54.44
11395;BME280;5753;54.402;10.220;2023-02-15T06:52:32;102813.91;;;9.40;56.63
11395;BME280;5753;54.402;10.220;2023-02-15T06:54:58;102801.75;;;10.56;53.69
11395;BME280;5753;54.402;10.220;2023-02-15T06:57:25;102798.94;;;10.33;53.93
11395;BME280;5753;54.402;10.220;2023-02-15T06:59:51;102788.59;;;10.69;53.27
11395;BME280;5753;54.402;10.220;2023-02-15T07:02:18;102796.41;;;10.17;55.00
11395;BME280;5753;54.402;10.220;2023-02-15T07:04:44;102787.22;;;10.22;54.09
11395;BME280;5753;54.402;10.220;2023-02-15T07:07:12;102786.84;;;10.32;54.04
11395;BME280;5753;54.402;10.220;2023-02-15T07:09:38;102789.75;;;10.04;55.11
11395;BME280;5753;54.402;10.220;2023-02-15T07:12:05;102783.59;;;10.19;54.88
11395;BME280;5753;54.402;10.220;2023-02-15T07:14:51;102776.66;;;10.71;53.13
11395;BME280;5753;54.402;10.220;2023-02-15T07:17:17;102775.44;;;9.75;55.90
11395;BME280;5753;54.402;10.220;2023-02-15T07:19:43;102784.66;;;9.22;57.51
11395;BME280;5753;54.402;10.220;2023-02-15T07:22:09;102781.69;;;9.46;56.42
11395;BME280;5753;54.402;10.220;2023-02-15T07:24:36;102774.94;;;9.49;55.99
11395;BME280;5753;54.402;10.220;2023-02-15T07:27:02;102776.44;;;10.66;53.75
11395;BME280;5753;54.402;10.220;2023-02-15T07:29:28;102772.53;;;10.75;53.05
11395;BME280;5753;54.402;10.220;2023-02-15T07:31:55;102770.81;;;10.56;53.76
11395;BME280;5753;54.402;10.220;2023-02-15T07:34:21;102775.13;;;9.69;55.33
11395;BME280;5753;54.402;10.220;2023-02-15T07:36:50;102770.72;;;10.36;54.07
11395;BME280;5753;54.402;10.220;2023-02-15T07:39:16;102772.97;;;10.13;54.46
11395;BME280;5753;54.402;10.220;2023-02-15T07:41:42;102771.84;;;10.42;54.31
11395;BME280;5753;54.402;10.220;2023-02-15T07:44:12;102770.13;;;10.97;53.31
11395;BME280;5753;54.402;10.220;2023-02-15T07:46:39;102768.06;;;10.53;54.03
11395;BME280;5753;54.402;10.220;2023-02-15T07:49:05;102773.88;;;10.13;55.38
11395;BME280;5753;54.402;10.220;2023-02-15T07:51:31;102770.78;;;10.02;55.29
11395;BME280;5753;54.402;10.220;2023-02-15T07:53:58;102771.09;;;9.92;56.15
11395;BME280;5753;54.402;10.220;2023-02-15T07:56:24;102771.34;;;11.05;53.14
11395;BME280;5753;54.402;10.220;2023-02-15T07:58:50;102759.94;;;11.39;52.16
11395;BME280;5753;54.402;10.220;2023-02-15T08:01:18;102758.34;;;9.60;55.58
11395;BME280;5753;54.402;10.220;2023-02-15T08:03:45;102747.97;;;10.10;54.53
11395;BME280;5753;54.402;10.220;2023-02-15T08:06:11;102753.78;;;10.06;55.51
11395;BME280;5753;54.402;10.220;2023-02-15T08:08:39;102750.09;;;10.36;55.39
11395;BME280;5753;54.402;10.220;2023-02-15T08:11:18;102755.06;;;8.04;61.29
11395;BME280;5753;54.402;10.220;2023-02-15T08:14:15;102745.66;;;9.46;58.50
11395;BME280;5753;54.402;10.220;2023-02-15T08:16:49;102745.31;;;10.08;56.41
11395;BME280;5753;54.402;10.220;2023-02-15T08:21:48;102752.00;;;10.58;55.32
11395;BME280;5753;54.402;10.220;2023-02-15T08:24:16;102752.25;;;10.27;55.68
11395;BME280;5753;54.402;10.220;2023-02-15T08:26:43;102742.53;;;10.22;56.11
11395;BME280;5753;54.402;10.220;2023-02-15T08:29:14;102745.63;;;10.50;55.50
11395;BME280;5753;54.402;10.220;2023-02-15T08:31:41;102753.38;;;9.30;58.31
11395;BME280;5753;54.402;10.220;2023-02-15T08:34:09;102751.13;;;10.40;56.42
11395;BME280;5753;54.402;10.220;2023-02-15T08:36:37;102741.47;;;10.91;54.63
11395;BME280;5753;54.402;10.220;2023-02-15T08:39:05;102745.00;;;10.56;55.80
11395;BME280;5753;54.402;10.220;2023-02-15T08:41:36;102734.50;;;10.88;55.50
11395;BME280;5753;54.402;10.220;2023-02-15T08:44:05;102734.47;;;10.16;56.02
11395;BME280;5753;54.402;10.220;2023-02-15T08:46:35;102744.81;;;10.70;56.74
11395;BME280;5753;54.402;10.220;2023-02-15T08:49:02;102737.38;;;10.77;56.38
11395;BME280;5753;54.402;10.220;2023-02-15T08:51:35;102736.38;;;8.52;60.81
11395;BME280;5753;54.402;10.220;2023-02-15T08:54:04;102724.97;;;10.15;58.38
11395;BME280;5753;54.402;10.220;2023-02-15T08:56:34;102728.66;;;10.20;57.86
11395;BME280;5753;54.402;10.220;2023-02-15T08:59:00;102726.44;;;9.92;57.51
11395;BME280;5753;54.402;10.220;2023-02-15T09:01:29;102725.31;;;10.21;58.03
11395;BME280;5753;54.402;10.220;2023-02-15T09:03:59;102720.66;;;11.46;55.81
11395;BME280;5753;54.402;10.220;2023-02-15T09:06:26;102706.59;;;10.25;58.21
11395;BME280;5753;54.402;10.220;2023-02-15T09:08:54;102704.91;;;10.62;56.40
11395;BME280;5753;54.402;10.220;2023-02-15T09:11:24;102703.50;;;10.32;57.52
11395;BME280;5753;54.402;10.220;2023-02-15T09:13:56;102708.59;;;9.61;60.28
11395;BME280;5753;54.402;10.220;2023-02-15T09:16:24;102701.50;;;10.08;59.44
11395;BME280;5753;54.402;10.220;2023-02-15T09:18:52;102698.50;;;11.31;56.09
11395;BME280;5753;54.402;10.220;2023-02-15T09:21:20;102691.84;;;10.96;56.86
11395;BME280;5753;54.402;10.220;2023-02-15T09:23:49;102704.94;;;11.01;55.74
11395;BME280;5753;54.402;10.220;2023-02-15T09:26:20;102708.13;;;11.15;56.73
11395;BME280;5753;54.402;10.220;2023-02-15T09:28:50;102702.41;;;11.62;54.80
11395;BME280;5753;54.402;10.220;2023-02-15T09:31:22;102708.34;;;11.80;54.28
11395;BME280;5753;54.402;10.220;2023-02-15T09:33:49;102706.16;;;12.12;53.19
11395;BME280;5753;54.402;10.220;2023-02-15T09:38:45;102702.69;;;10.70;57.48
11395;BME280;5753;54.402;10.220;2023-02-15T09:41:52;102707.75;;;11.46;56.21
11395;BME280;5753;54.402;10.220;2023-02-15T09:53:41;102714.28;;;11.38;57.11
11395;BME280;5753;54.402;10.220;2023-02-15T09:56:22;102711.88;;;9.92;59.92
11395;BME280;5753;54.402;10.220;2023-02-15T09:58:56;102710.63;;;10.75;57.50
11395;BME280;5753;54.402;10.220;2023-02-15T10:04:32;102700.25;;;11.73;55.67
11395;BME280;5753;54.402;10.220;2023-02-15T10:07:09;102705.81;;;12.03;55.45
11395;BME280;5753;54.402;10.220;2023-02-15T10:10:40;102713.22;;;12.16;55.11
11395;BME280;5753;54.402;10.220;2023-02-15T10:12:55;102710.53;;;11.31;57.82
11395;BME280;5753;54.402;10.220;2023-02-15T10:28:52;102702.31;;;11.40;59.11
11395;BME280;5753;54.402;10.220;2023-02-15T10:32:28;102701.53;;;12.03;57.82
11395;BME280;5753;54.402;10.220;2023-02-15T10:34:40;102710.97;;;11.82;57.70
11395;BME280;5753;54.402;10.220;2023-02-15T10:48:41;102687.03;;;12.51;56.01
11395;BME280;5753;54.402;10.220;2023-02-15T10:50:59;102690.38;;;12.26;56.70
11395;BME280;5753;54.402;10.220;2023-02-15T10:56:19;102695.50;;;10.63;61.05
11395;BME280;5753;54.402;10.220;2023-02-15T11:02:35;102694.63;;;12.47;56.23
11395;BME280;5753;54.402;10.220;2023-02-15T11:09:46;102677.38;;;13.95;53.11
11395;BME280;5753;54.402;10.220;2023-02-15T11:12:18;102675.16;;;13.04;54.65
11395;BME280;5753;54.402;10.220;2023-02-15T11:15:02;102670.75;;;13.02;54.06
11395;BME280;5753;54.402;10.220;2023-02-15T11:17:43;102671.03;;;13.33;54.10
11395;BME280;5753;54.402;10.220;2023-02-15T11:23:15;102667.06;;;12.95;54.80
11395;BME280;5753;54.402;10.220;2023-02-15T11:25:44;102659.25;;;12.70;55.44
11395;BME280;5753;54.402;10.220;2023-02-15T11:28:22;102663.34;;;12.41;57.58
11395;BME280;5753;54.402;10.220;2023-02-15T11:30:54;102658.72;;;13.26;55.04
11395;BME280;5753;54.402;10.220;2023-02-15T11:33:34;102659.13;;;12.67;56.08
11395;BME280;5753;54.402;10.220;2023-02-15T11:36:10;102655.88;;;12.96;55.82
11395;BME280;5753;54.402;10.220;2023-02-15T11:38:38;102648.00;;;12.23;59.07
11395;BME280;5753;54.402;10.220;2023-02-15T11:41:18;102648.81;;;13.16;56.74
11395;BME280;5753;54.402;10.220;2023-02-15T11:44:06;102638.19;;;13.08;56.32
11395;BME280;5753;54.402;10.220;2023-02-15T11:46:33;102631.56;;;13.40;54.55
11395;BME280;5753;54.402;10.220;2023-02-15T11:48:59;102635.38;;;13.78;54.22
11395;BME280;5753;54.402;10.220;2023-02-15T11:51:26;102623.47;;;13.58;55.18
11395;BME280;5753;54.402;10.220;2023-02-15T11:53:54;102625.34;;;13.62;54.99
11395;BME280;5753;54.402;10.220;2023-02-15T11:56:23;102626.13;;;13.09;56.21
11395;BME280;5753;54.402;10.220;2023-02-15T11:59:12;102614.56;;;14.04;54.86
11395;BME280;5753;54.402;10.220;2023-02-15T12:01:44;102612.13;;;14.38;53.08
11395;BME280;5753;54.402;10.220;2023-02-15T12:04:34;102610.66;;;15.11;52.13
11395;BME280;5753;54.402;10.220;2023-02-15T12:07:13;102608.69;;;13.27;55.81
11395;BME280;5753;54.402;10.220;2023-02-15T12:09:52;102614.72;;;12.54;59.64
11395;BME280;5753;54.402;10.220;2023-02-15T12:12:31;102607.56;;;13.46;56.10
11395;BME280;5753;54.402;10.220;2023-02-15T12:14:59;102595.91;;;14.17;54.39
11395;BME280;5753;54.402;10.220;2023-02-15T12:17:28;102598.75;;;13.68;55.13
11395;BME280;5753;54.402;10.220;2023-02-15T12:19:57;102588.31;;;14.52;54.21
11395;BME280;5753;54.402;10.220;2023-02-15T12:24:58;102595.00;;;12.82;57.77
11395;BME280;5753;54.402;10.220;2023-02-15T12:27:32;102601.19;;;12.38;59.52
11395;BME280;5753;54.402;10.220;2023-02-15T12:30:16;102585.28;;;12.05;60.81
11395;BME280;5753;54.402;10.220;2023-02-15T12:32:53;102578.97;;;13.17;58.05
11395;BME280;5753;54.402;10.220;2023-02-15T12:35:30;102580.84;;;13.21;59.11
11395;BME280;5753;54.402;10.220;2023-02-15T12:38:03;102574.22;;;12.55;60.57
11395;BME280;5753;54.402;10.220;2023-02-15T12:40:30;102567.38;;;14.45;55.13
11395;BME280;5753;54.402;10.220;2023-02-15T12:42:57;102572.81;;;13.39;56.31
11395;BME280;5753;54.402;10.220;2023-02-15T12:48:16;102567.25;;;13.82;57.31
11395;BME280;5753;54.402;10.220;2023-02-15T12:50:48;102566.72;;;13.13;58.42
11395;BME280;5753;54.402;10.220;2023-02-15T12:53:29;102564.25;;;13.42;57.76
11395;BME280;5753;54.402;10.220;2023-02-15T12:55:58;102558.59;;;13.27;57.72
11395;BME280;5753;54.402;10.220;2023-02-15T12:58:28;102555.47;;;13.37;57.44
11395;BME280;5753;54.402;10.220;2023-02-15T13:01:15;102553.22;;;14.66;55.36
11395;BME280;5753;54.402;10.220;2023-02-15T13:04:01;102550.97;;;14.46;54.87
11395;BME280;5753;54.402;10.220;2023-02-15T13:06:31;102558.34;;;14.03;55.65
11395;BME280;5753;54.402;10.220;2023-02-15T13:09:24;102557.69;;;14.10;55.54
11395;BME280;5753;54.402;10.220;2023-02-15T13:11:46;102551.63;;;13.79;55.72
11395;BME280;5753;54.402;10.220;2023-02-15T13:16:49;102545.22;;;15.24;52.96
11395;BME280;5753;54.402;10.220;2023-02-15T13:19:45;102547.16;;;14.65;53.92
11395;BME280;5753;54.402;10.220;2023-02-15T13:22:21;102535.94;;;14.35;55.06
11395;BME280;5753;54.402;10.220;2023-02-15T13:25:17;102548.34;;;14.76;54.51
11395;BME280;5753;54.402;10.220;2023-02-15T13:27:48;102548.69;;;14.90;53.61
11395;BME280;5753;54.402;10.220;2023-02-15T13:30:27;102539.72;;;14.77;53.81
11395;BME280;5753;54.402;10.220;2023-02-15T13:42:19;102531.38;;;14.58;55.09
11395;BME280;5753;54.402;10.220;2023-02-15T13:51:17;102536.38;;;14.83;54.07
11395;BME280;5753;54.402;10.220;2023-02-15T13:56:53;102528.03;;;14.00;56.14
11395;BME280;5753;54.402;10.220;2023-02-15T14:04:47;102524.03;;;14.73;54.58
11395;BME280;5753;54.402;10.220;2023-02-15T14:15:56;102512.31;;;12.85;59.73
11395;BME280;5753;54.402;10.220;2023-02-15T14:31:59;102501.34;;;14.04;57.40
11395;BME280;5753;54.402;10.220;2023-02-15T14:34:33;102498.94;;;14.42;56.34
11395;BME280;5753;54.402;10.220;2023-02-15T14:37:03;102501.28;;;14.99;55.31
11395;BME280;5753;54.402;10.220;2023-02-15T14:39:58;102497.41;;;14.82;55.15
11395;BME280;5753;54.402;10.220;2023-02-15T14:43:02;102496.22;;;14.37;57.09
11395;BME280;5753;54.402;10.220;2023-02-15T14:45:49;102484.72;;;14.59;55.60
11395;BME280;5753;54.402;10.220;2023-02-15T14:48:17;102480.66;;;14.69;55.48
11395;BME280;5753;54.402;10.220;2023-02-15T14:50:48;102487.78;;;14.14;56.44
11395;BME280;5753;54.402;10.220;2023-02-15T14:53:40;102483.94;;;14.30;57.10
11395;BME280;5753;54.402;10.220;2023-02-15T15:01:38;102493.88;;;12.50;61.62
11395;BME280;5753;54.402;10.220;2023-02-15T15:04:14;102487.19;;;14.88;55.81
11395;BME280;5753;54.402;10.220;2023-02-15T15:07:20;102478.38;;;15.56;53.90
11395;BME280;5753;54.402;10.220;2023-02-15T15:09:48;102482.94;;;14.91;55.11
11395;BME280;5753;54.402;10.220;2023-02-15T15:14:55;102479.31;;;15.21;54.66
11395;BME280;5753;54.402;10.220;2023-02-15T15:22:45;102473.69;;;15.40;54.34
11395;BME280;5753;54.402;10.220;2023-02-15T15:48:46;102461.22;;;14.53;56.86
11395;BME280;5753;54.402;10.220;2023-02-15T15:51:32;102465.78;;;13.70;58.90
11395;BME280;5753;54.402;10.220;2023-02-15T15:54:01;102457.66;;;14.49;56.26
11395;BME280;5753;54.402;10.220;2023-02-15T15:56:33;102454.25;;;14.52;56.14
11395;BME280;5753;54.402;10.220;2023-02-15T15:59:18;102442.13;;;13.88;57.57
11395;BME280;5753;54.402;10.220;2023-02-15T16:01:46;102434.28;;;13.55;59.01
11395;BME280;5753;54.402;10.220;2023-02-15T16:06:50;102432.50;;;13.54;59.23
11395;BME280;5753;54.402;10.220;2023-02-15T16:09:19;102427.94;;;13.74;59.20
11395;BME280;5753;54.402;10.220;2023-02-15T16:11:52;102431.16;;;13.97;58.11